Tiempo atmosférico en la estación meteorológica de Zaorejas, Guadalajara (1230 m.)



Fecha
DESCASC
Temp. máxima en grados centígrados (hora)
DESCASC
Temp. mínima en grados centígrados (hora)
DESCASC
Temp. media en grados centígrados
DESCASC
Racha de viento máxima en m/sg (hora)
DESCASC
Velocidad máxima media en intervalos de 10 minutos(hora)
DESCASC
Precipitaciones diarias en mm
DESCASC
Precipitaciones de 00:00 a 06:00 en mm
DESCASC
Precipitaciones de 06:00 a 12:00 en mm
DESCASC
Precipitaciones de 12:00 a 18:00 en mm
DESCASC
Precipitaciones de 18:00 a 24:00 en mm
DESCASC
14-12-2019 6.1 (15:00) 4.1 (04:40) 5.1 10.56 (01:10) 6.11 (02:10) 0 0 0 0 0
13-12-2019 11 (15:20) 5.4 (23:40) 8.2 14.72 (08:10) 8.06 (08:50) 0.2 0.2 0 0 0
12-12-2019 5.9 (23:59) -0.1 (05:10) 2.9 15.83 (18:20) 8.89 (17:30) 5.2 0 0 3.4 1.8
11-12-2019 4.3 (13:00) 0.2 (00:00) 2.3 10.28 (16:50) 5.56 (16:50) 0.8 0 0.6 0.2 0
10-12-2019 11 (15:40) -1.8 (-00:0) 4.6 4.44 (14:00) 2.5 (14:00) 0 0 0 0 0
09-12-2019 8.5 (14:50) 1 (00:00) 4.8 8.33 (17:40) 3.33 (02:40) 0.2 0.2 0 0 0
08-12-2019 10.2 (13:40) 0.6 (00:00) 5.4 4.17 (18:10) 2.22 (15:20) 0 0 0 0 0
07-12-2019 10.9 (15:20) -0.8 (-00:0) 5 3.06 (20:20) 2.22 (20:20) 0 0 0 0 0
06-12-2019 10 (14:50) 2.7 (00:00) 6.4 5.83 (00:10) 3.33 (21:20) 0 0 0 0 0
05-12-2019 4.3 (15:20) 2.7 (00:00) 3.5 10 (02:30) 5.83 (02:30) 0 0 0 0 0
04-12-2019 4 (18:30) 0.3 (00:00) 2.2 10.83 (14:20) 5 (16:10) 1 0.2 0.2 0.2 0.4
03-12-2019 -- (--) -- (--) -- -- (--) -- (--) -- 0 0 -- 0.2
02-12-2019 4.6 (14:30) 0.9 (00:00) 2.7 10.56 (08:10) 4.17 (12:30) 0 0 0 0 0
01-12-2019 6.8 (13:40) 1.6 (00:00) 4.2 8.06 (12:00) 4.17 (13:00) 0 0 0 0 0
30-11-2019 8.9 (11:50) 2.2 (00:00) 5.5 12.78 (18:20) 6.67 (17:50) 0 0 0 0 0
29-11-2019 10.2 (13:50) 6.9 (00:00) 8.5 9.17 (01:30) 5 (07:00) 0 0 0 0 0
28-11-2019 7 (23:50) 4.9 (00:00) 6 12.22 (21:10) 6.39 (19:10) 0 0 0 0 0
27-11-2019 8.8 (00:00) 5.9 (00:00) 7.4 16.39 (00:40) 9.72 (00:50) 0 0 0 0 0
26-11-2019 9.7 (14:30) 6.7 (00:00) 8.2 18.61 (23:50) 9.72 (23:50) -- -- -- -- --
25-11-2019 9.9 (14:50) 3.2 (00:00) 6.5 12.78 (05:30) 6.11 (05:30) -- -- -- -- --
24-11-2019 6.8 (15:20) 1.5 (00:00) 4.2 9.17 (20:20) 5.28 (20:40) -- -- -- -- --
23-11-2019 5.5 (14:10) 1.6 (00:00) 3.6 15.83 (05:00) 8.06 (02:00) -- -- -- -- --
22-11-2019 8.3 (18:10) 3.5 (00:00) 5.9 17.78 (18:10) 9.17 (21:10) -- -- -- -- --
21-11-2019 5.4 (15:10) 1.6 (00:00) 3.5 9.72 (11:20) 5.28 (11:20) -- -- -- -- --
20-11-2019 6.2 (12:50) -0.7 (-00:0) 2.7 8.33 (11:00) 4.72 (11:10) -- -- -- -- --
19-11-2019 7 (16:10) -3.9 (-00:0) 1.5 6.39 (13:10) 3.89 (19:20) -- -- -- -- --
18-11-2019 4.6 (15:40) -0.7 (-00:0) 1.9 9.72 (11:50) 4.72 (14:10) -- -- -- -- --
17-11-2019 3.6 (13:20) -1.8 (-00:0) 0.9 11.11 (13:30) 6.11 (13:40) -- -- -- -- --
16-11-2019 5.7 (15:40) -2 (-00:0) 1.8 7.5 (15:20) 3.89 (15:30) -- -- -- -- --

Gráficas

Temp. máximas Temp. mínimas Temp. medias Precipitaciones Rachas de viento máximas Velocidades máximas media en intervalos de 10 minutos

Datos horarios

Fecha y hora oficial Temperatura (ºC) Velocidad del viento (km/h) Dirección del viento Racha (km/h) Dirección de racha Precipitación (mm) Presión (hPa) Tendencia (hPa) Humedad (%)
2019-12-15 23:00:00 4.9 0 Calma 12 Sudoeste 0 -- -- 89
2019-12-15 22:00:00 5.2 7 Sudoeste 16 Sudoeste 0 -- -- 88
2019-12-15 21:00:00 5.3 5 Sur 13 Sur 0 -- -- 87
2019-12-15 20:00:00 5.4 8 Sudoeste 18 Sur 0 -- -- 86
2019-12-15 19:00:00 5.6 8 Sudoeste 19 Sudoeste 0 -- -- 86
2019-12-15 18:00:00 5.8 9 Sudoeste 19 Sudoeste 0 -- -- 85
2019-12-15 17:00:00 6.2 11 Sudoeste 28 Sudoeste 0 -- -- 82
2019-12-15 16:00:00 6.9 12 Sudoeste 33 Sudoeste 0 -- -- 78
2019-12-15 15:00:00 7.1 14 Sudoeste 42 Sudoeste 0 -- -- 77
2019-12-15 14:00:00 6.5 15 Sudoeste 36 Oeste 0 -- -- 79
2019-12-15 13:00:00 5.8 17 Sudoeste 40 Sudoeste 0 -- -- 82
2019-12-15 12:00:00 5.3 17 Sudoeste 37 Sudoeste 0 -- -- 85
2019-12-15 11:00:00 4.9 14 Sudoeste 33 Sudoeste 0 -- -- 89
2019-12-15 10:00:00 4.6 14 Sudoeste 29 Sudoeste 0 -- -- 91
2019-12-15 09:00:00 4.4 14 Sudoeste 30 Sudoeste 0 -- -- 94
2019-12-15 08:00:00 4.4 14 Sudoeste 28 Sudoeste 0 -- -- 95
2019-12-15 07:00:00 4.3 16 Sudoeste 27 Sudoeste 0 -- -- 95
2019-12-15 06:00:00 4.3 15 Sudoeste 33 Sudoeste 0 -- -- 97
2019-12-15 05:00:00 4.5 13 Sudoeste 27 Sudoeste 0 -- -- 97
2019-12-15 04:00:00 4.4 15 Sudoeste 32 Sudoeste 0 -- -- 95
2019-12-15 03:00:00 4.3 13 Sudoeste 32 Sudoeste 0 -- -- 97
2019-12-15 02:00:00 4.5 14 Sudoeste 36 Oeste 0 -- -- 97
2019-12-15 01:00:00 4.7 10 Sudoeste 23 Sudoeste 0 -- -- 96
2019-12-15 00:00:00 4.7 12 Sudoeste 28 Sudoeste 0 -- -- 95
2019-12-14 23:00:00 4.7 16 Sudoeste 30 Sudoeste 0 -- -- 93
2019-12-14 22:00:00 4.9 14 Sudoeste 33 Sudoeste 0 -- -- 92
2019-12-14 21:00:00 5 18 Sudoeste 36 Sudoeste 0 -- -- 90
2019-12-14 20:00:00 5 18 Sudoeste 34 Sudoeste 0 -- -- 90
2019-12-14 19:00:00 5.2 16 Sudoeste 31 Sudoeste 0 -- -- 89
2019-12-14 18:00:00 5.5 18 Sudoeste 32 Sudoeste 0 -- -- 89
2019-12-14 17:00:00 5.9 17 Sudoeste 29 Sudoeste 0 -- -- 86
2019-12-14 16:00:00 6 16 Sudoeste 34 Sudoeste 0 -- -- 85
2019-12-14 15:00:00 6.1 15 Sudoeste 30 Sudoeste 0 -- -- 85
2019-12-14 14:00:00 5.8 14 Oeste 31 Sudoeste 0 -- -- 87
2019-12-14 13:00:00 5.5 13 Sudoeste 24 Sudoeste 0 -- -- 89
2019-12-14 12:00:00 5.2 10 Sudoeste 22 Oeste 0 -- -- 92
2019-12-14 11:00:00 5 11 Oeste 23 Oeste 0 -- -- 94
2019-12-14 10:00:00 4.8 13 Sudoeste 30 Sudoeste 0 -- -- 94
2019-12-14 09:00:00 4.6 13 Sudoeste 30 Sudoeste 0 -- -- 94
2019-12-14 08:00:00 4.7 12 Sudoeste 27 Sudoeste 0 -- -- 96
2019-12-14 07:00:00 4.6 13 Sudoeste 33 Sudoeste 0 -- -- 96
2019-12-14 06:00:00 4.3 11 Sudoeste 27 Sudoeste 0 -- -- 98
2019-12-14 05:00:00 4.1 14 Sudoeste 33 Sudoeste 0 -- -- 97
2019-12-14 04:00:00 4.4 14 Sudoeste 33 Sudoeste 0 -- -- 97
2019-12-14 03:00:00 4.7 17 Sudoeste 37 Oeste 0 -- -- 97
2019-12-14 02:00:00 4.9 19 Sudoeste 38 Sudoeste 0 -- -- 96
2019-12-14 01:00:00 4.9 18 Sudoeste 32 Sudoeste 0 -- -- 95
2019-12-14 00:00:00 5.4 20 Sudoeste 32 Sudoeste 0 -- -- 90
2019-12-13 23:00:00 6.2 12 Sudoeste 29 Sudoeste 0 -- -- 88
2019-12-13 22:00:00 7.4 17 Sudoeste 36 Sudoeste 0 -- -- 87
2019-12-13 21:00:00 8.1 23 Sudoeste 46 Sudoeste 0 -- -- 86
2019-12-13 20:00:00 8.3 23 Sudoeste 43 Sudoeste 0 -- -- 88
2019-12-13 19:00:00 8.5 20 Oeste 37 Oeste 0 -- -- 88
2019-12-13 18:00:00 8.8 17 Oeste 39 Oeste 0 -- -- 86
2019-12-13 17:00:00 9.5 19 Oeste 39 Oeste 0 -- -- 83
2019-12-13 16:00:00 10.8 18 Oeste 48 Oeste 0 -- -- 78
2019-12-13 15:00:00 10.9 23 Oeste 45 Sudoeste 0 -- -- 81
2019-12-13 14:00:00 9.4 19 Oeste 39 Oeste 0 -- -- 84
2019-12-13 13:00:00 8.4 15 Oeste 36 Sudoeste 0 -- -- 88
2019-12-13 12:00:00 8.3 17 Oeste 43 Oeste 0 -- -- 88
2019-12-13 11:00:00 7.5 18 Sudoeste 42 Oeste 0 -- -- 92
2019-12-13 10:00:00 7 21 Sudoeste 45 Sudoeste 0 -- -- 94
2019-12-13 09:00:00 6.9 28 Sudoeste 53 Sudoeste 0 -- -- 96
2019-12-13 08:00:00 7.3 26 Sudoeste 46 Sudoeste 0 -- -- 95
2019-12-13 07:00:00 7.6 21 Sudoeste 50 Sudoeste 0 -- -- 97
2019-12-13 06:00:00 7.5 26 Sudoeste 52 Oeste 0 -- -- 99
2019-12-13 05:00:00 7.2 23 Sudoeste 53 Sur 0 -- -- 100
2019-12-13 04:00:00 7 26 Sudoeste 49 Sudoeste 0 -- -- 100
2019-12-13 03:00:00 6.7 23 Sudoeste 48 Sudoeste 0 -- -- 100
2019-12-13 02:00:00 6.3 25 Sudoeste 45 Sudoeste 0 -- -- 100
2019-12-13 01:00:00 6.1 23 Sudoeste 46 Sudoeste 0.2 -- -- 100
2019-12-13 00:00:00 5.9 24 Sudoeste 46 Sudoeste 0 -- -- 100
2019-12-12 23:00:00 5.4 24 Sudoeste 53 Oeste 0 -- -- 100
2019-12-12 22:00:00 5 26 Sudoeste 50 Sudoeste 0 -- -- 100
2019-12-12 21:00:00 4.7 26 Sudoeste 52 Sudoeste 0.4 -- -- 100
2019-12-12 20:00:00 4.2 24 Sudoeste 50 Sudoeste 0.6 -- -- 99
2019-12-12 19:00:00 3.7 27 Sudoeste 57 Sudoeste 0.8 -- -- 98
2019-12-12 18:00:00 3.1 28 Sudoeste 54 Sudoeste 0.8 -- -- 98
2019-12-12 17:00:00 2.6 28 Sudoeste 55 Sudoeste 1 -- -- 98
2019-12-12 16:00:00 2.1 24 Sudoeste 47 Sudoeste 0.8 -- -- 97
2019-12-12 15:00:00 1.7 21 Sudoeste 48 Sudoeste 0.8 -- -- 96
2019-12-12 14:00:00 2.6 24 Sudoeste 44 Oeste 0 -- -- 92
2019-12-12 13:00:00 2.4 22 Sudoeste 48 Sudoeste 0 -- -- 90
2019-12-12 12:00:00 1.8 19 Sudoeste 38 Sudoeste 0 -- -- 91
2019-12-12 11:00:00 1.8 15 Sudoeste 30 Sudoeste 0 -- -- 90
2019-12-12 10:00:00 0.9 13 Sudoeste 27 Sudoeste 0 -- -- 93
2019-12-12 09:00:00 0.4 12 Sudoeste 28 Sudoeste 0 -- -- 92
2019-12-12 08:00:00 0.5 15 Sudoeste 35 Sudoeste 0 -- -- 91
2019-12-12 07:00:00 0.4 19 Sudoeste 33 Oeste 0 -- -- 91
2019-12-12 06:00:00 0.1 17 Sudoeste 32 Sudoeste 0 -- -- 92
2019-12-12 05:00:00 0 15 Sudoeste 28 Sudoeste 0 -- -- 91
2019-12-12 04:00:00 0 16 Sudoeste 27 Sudoeste 0 -- -- 89
2019-12-12 03:00:00 0.5 15 Sudoeste 23 Sudoeste 0 -- -- 86
2019-12-12 02:00:00 0.3 8 Oeste 23 Sudoeste 0 -- -- 85
2019-12-12 01:00:00 0.3 10 Sudoeste 21 Sudoeste 0 -- -- 85
2019-12-12 00:00:00 0.2 5 Oeste 15 Oeste 0 -- -- 85
2019-12-11 23:00:00 0.4 8 Oeste 17 Oeste 0 -- -- 84
2019-12-11 22:00:00 0.5 8 Sudoeste 15 Sudoeste 0 -- -- 86
2019-12-11 21:00:00 0.8 5 Oeste 18 Noroeste 0 -- -- 84
2019-12-11 20:00:00 1.4 5 Oeste 17 Noroeste 0 -- -- 85
2019-12-11 19:00:00 1.5 7 Noroeste 15 Noroeste 0 -- -- 88
2019-12-11 18:00:00 2 4 Noroeste 31 Noroeste 0 -- -- 85
2019-12-11 17:00:00 3.1 19 Noroeste 37 Noroeste 0 -- -- 81
2019-12-11 16:00:00 3.3 14 Noroeste 31 Noroeste 0 -- -- 90
2019-12-11 15:00:00 3.1 14 Oeste 28 Oeste 0 -- -- 95
2019-12-11 14:00:00 3.4 11 Oeste 29 Oeste 0 -- -- 91
2019-12-11 13:00:00 4.3 12 Oeste 25 Sudoeste 0.2 -- -- 90
2019-12-11 12:00:00 3.4 14 Sudoeste 28 Sudoeste 0.6 -- -- 87
2019-12-11 11:00:00 3.7 8 Sudoeste 26 Sudoeste 0 -- -- 78
2019-12-11 10:00:00 3.4 9 Sudoeste 29 Sur 0 -- -- 79
2019-12-11 09:00:00 1.6 17 Sur 28 Sur 0 -- -- 78
2019-12-11 08:00:00 1.3 6 Oeste 15 Sudoeste 0 -- -- 76
2019-12-11 07:00:00 1.7 7 Sudoeste 18 Sur 0 -- -- 76
2019-12-11 06:00:00 1.8 15 Sur 24 Sur 0 -- -- 77
2019-12-11 05:00:00 1.1 0 Calma 14 Sur 0 -- -- 77
2019-12-11 04:00:00 1.1 7 Sudoeste 13 Sudoeste 0 -- -- 76
2019-12-11 03:00:00 1.9 5 Sudoeste 19 Sur 0 -- -- 73
2019-12-11 02:00:00 1.7 10 Sur 15 Sudoeste 0 -- -- 79
2019-12-11 01:00:00 1.5 7 Sudoeste 12 Sur 0 -- -- 83
2019-12-11 00:00:00 2.3 3 Sudoeste 12 Sudoeste 0 -- -- 83
2019-12-10 23:00:00 2.8 3 Oeste 14 Sudoeste 0 -- -- 84
2019-12-10 22:00:00 3.3 5 Oeste 14 Sur 0 -- -- 82
2019-12-10 21:00:00 3.1 4 Oeste 16 Sur 0 -- -- 83
2019-12-10 20:00:00 3.5 6 Sur 13 Sur 0 -- -- 78
2019-12-10 19:00:00 5.4 7 Sudoeste 11 Sur 0 -- -- 70
2019-12-10 18:00:00 7.7 3 Sudoeste 7 Sudoeste 0 -- -- 59
2019-12-10 17:00:00 9.8 0 Calma 12 Noroeste 0 -- -- 55
2019-12-10 16:00:00 10.4 6 Noroeste 12 Noroeste 0 -- -- 44
2019-12-10 15:00:00 10.1 7 Noroeste 14 Noroeste 0 -- -- 52
2019-12-10 14:00:00 9.6 9 Oeste 16 Oeste 0 -- -- 53
2019-12-10 13:00:00 8.2 0 Calma 11 Noroeste 0 -- -- 65
2019-12-10 12:00:00 6 3 Oeste 12 Sudoeste 0 -- -- 75
2019-12-10 11:00:00 4.3 3 Sudeste 9 Nordeste 0 -- -- 80
2019-12-10 10:00:00 0 3 Nordeste 8 Nordeste 0 -- -- 91
2019-12-10 09:00:00 -0.8 0 Calma 6 Noroeste 0 -- -- 91
2019-12-10 08:00:00 -0.9 2 Sudeste 5 Sudeste 0 -- -- 93
2019-12-10 07:00:00 -1.4 0 Calma 10 Nordeste 0 -- -- 91
2019-12-10 06:00:00 -0.4 3 Nordeste 7 Nordeste 0 -- -- 93
2019-12-10 05:00:00 -0.9 3 Sudeste 6 Este 0 -- -- 93
2019-12-10 04:00:00 -0.3 3 Este 10 Norte 0 -- -- 93
2019-12-10 03:00:00 -0.1 2 Nordeste 4 Nordeste 0 -- -- 93
2019-12-10 02:00:00 -0.2 2 Oeste 11 Nordeste 0 -- -- 94
2019-12-10 01:00:00 0.9 4 Norte 8 Norte 0 -- -- 90
2019-12-10 00:00:00 1.1 4 Noroeste 8 Norte 0 -- -- 91
2019-12-09 23:00:00 1.4 3 Norte 15 Norte 0 -- -- 89
2019-12-09 22:00:00 2 6 Norte 13 Norte 0 -- -- 89
2019-12-09 21:00:00 2.8 6 Norte 13 Noroeste 0 -- -- 86
2019-12-09 20:00:00 3.6 7 Noroeste 21 Noroeste 0 -- -- 81
2019-12-09 19:00:00 4.3 8 Noroeste 18 Noroeste 0 -- -- 75
2019-12-09 18:00:00 5.2 8 Noroeste 30 Noroeste 0 -- -- 68
2019-12-09 17:00:00 6.4 10 Noroeste 24 Noroeste 0 -- -- 66
2019-12-09 16:00:00 8.2 6 Oeste 18 Noroeste 0 -- -- 70
2019-12-09 15:00:00 8.5 8 Oeste 19 Oeste 0 -- -- 68
2019-12-09 14:00:00 8.1 8 Oeste 18 Oeste 0 -- -- 68
2019-12-09 13:00:00 7.8 9 Oeste 17 Noroeste 0 -- -- 71
2019-12-09 12:00:00 7.7 8 Oeste 18 Oeste 0 -- -- 66
2019-12-09 11:00:00 6.2 8 Oeste 16 Oeste 0 -- -- 72
2019-12-09 10:00:00 2.5 10 Sudoeste 17 Sudoeste 0 -- -- 84
2019-12-09 09:00:00 1.8 9 Sudoeste 14 Sudoeste 0 -- -- 92
2019-12-09 08:00:00 1.2 4 Sudoeste 8 Sudoeste 0 -- -- 97
2019-12-09 07:00:00 1.9 5 Oeste 12 Noroeste 0 -- -- 96
2019-12-09 06:00:00 2.3 3 Sudoeste 11 Oeste 0 -- -- 95
2019-12-09 05:00:00 2.9 3 Oeste 8 Oeste 0 -- -- 94
2019-12-09 04:00:00 3.9 4 Sur 16 Oeste 0.2 -- -- 95
2019-12-09 03:00:00 5.1 10 Noroeste 22 Oeste 0 -- -- 95
2019-12-09 02:00:00 5.3 7 Noroeste 19 Noroeste 0 -- -- 98
2019-12-09 01:00:00 5.6 8 Oeste 18 Noroeste 0 -- -- 100
2019-12-09 00:00:00 5.3 4 Oeste 14 Norte 0 -- -- 99
2019-12-08 23:00:00 4.9 5 Oeste 11 Oeste 0 -- -- 99
2019-12-08 22:00:00 4.9 0 Calma 6 Sudoeste 0 -- -- 98
2019-12-08 21:00:00 5 4 Sudoeste 10 Sudoeste 0 -- -- 97
2019-12-08 20:00:00 5.2 4 Oeste 10 Sudoeste 0 -- -- 97
2019-12-08 19:00:00 5.2 4 Sudoeste 15 Oeste 0 -- -- 96
2019-12-08 18:00:00 5.4 8 Sudoeste 14 Oeste 0 -- -- 94
2019-12-08 17:00:00 6.1 6 Sudoeste 14 Oeste 0 -- -- 92
2019-12-08 16:00:00 7.1 6 Sudoeste 13 Oeste 0 -- -- 86
2019-12-08 15:00:00 8.1 5 Oeste 10 Oeste 0 -- -- 82
2019-12-08 14:00:00 9.8 5 Oeste 12 Oeste 0 -- -- 76
2019-12-08 13:00:00 9.4 5 Sudoeste 11 Oeste 0 -- -- 79
2019-12-08 12:00:00 7.4 4 Sudoeste 8 Sudoeste 0 -- -- 88
2019-12-08 11:00:00 5.4 2 Oeste 7 Sur 0 -- -- 99
2019-12-08 10:00:00 2.5 2 Sudoeste 8 Sur 0 -- -- 100
2019-12-08 09:00:00 1.4 3 Sudoeste 6 Sur 0 -- -- 99
2019-12-08 08:00:00 1.7 5 Sudoeste 13 Sudoeste 0 -- -- 98
2019-12-08 07:00:00 1 0 Calma 6 Sudoeste 0 -- -- 98
2019-12-08 06:00:00 1 6 Sur 9 Sur 0 -- -- 98
2019-12-08 05:00:00 0.8 3 Sur 9 Sur 0 -- -- 97
2019-12-08 04:00:00 0.8 2 Sur 5 Sur 0 -- -- 96
2019-12-08 03:00:00 1.2 3 Sur 6 Sur 0 -- -- 95
2019-12-08 02:00:00 1.7 2 Sur 9 Sur 0 -- -- 94
2019-12-08 01:00:00 1.8 4 Sur 9 Sur 0 -- -- 95
2019-12-08 00:00:00 1.7 5 Sur 7 Sudoeste 0 -- -- 94
2019-12-07 23:00:00 2.3 4 Sudoeste 5 Sur 0 -- -- 92
2019-12-07 22:00:00 3.2 2 Sudoeste 6 Sur 0 -- -- 91
2019-12-07 21:00:00 4 4 Sudoeste 11 Sudoeste 0 -- -- 88
2019-12-07 20:00:00 4.5 5 Sur 9 Sur 0 -- -- 87
2019-12-07 19:00:00 6.1 4 Sudoeste 7 Sudoeste 0 -- -- 82
2019-12-07 18:00:00 8 3 Sudoeste 6 Oeste 0 -- -- 74
2019-12-07 17:00:00 9.7 3 Noroeste 8 Oeste 0 -- -- 68
2019-12-07 16:00:00 10.5 4 Noroeste 9 Sudoeste 0 -- -- 64
2019-12-07 15:00:00 10.1 4 Sudoeste 9 Oeste 0 -- -- 70
2019-12-07 14:00:00 8.7 0 Calma 7 Nordeste 0 -- -- 75
2019-12-07 13:00:00 7.1 3 Nordeste 5 Nordeste 0 -- -- 94
2019-12-07 12:00:00 4.9 2 Nordeste 5 Nordeste 0 -- -- 100
2019-12-07 11:00:00 2 0 Calma 6 Nordeste 0 -- -- 100
2019-12-07 10:00:00 -0.3 0 Calma 5 Nordeste 0 -- -- 100
2019-12-07 09:00:00 -0.8 2 Este 5 Nordeste 0 -- -- 99
2019-12-07 08:00:00 -0.3 0 Calma 5 Sudeste 0 -- -- 97
2019-12-07 07:00:00 0.5 0 Calma 7 Sur 0 -- -- 98
2019-12-07 06:00:00 1.4 0 Calma 4 Sudeste 0 -- -- 99
2019-12-07 05:00:00 1.1 2 Sur 3 Sur 0 -- -- 98
2019-12-07 04:00:00 1.6 0 Calma 3 Nordeste 0 -- -- 95
2019-12-07 03:00:00 2.8 0 Calma 3 Sur 0 -- -- 94
2019-12-07 02:00:00 3.7 0 Calma 7 Sudoeste 0 -- -- 96
2019-12-07 01:00:00 3.4 4 Sur 9 Sur 0 -- -- 97
2019-12-07 00:00:00 2.9 4 Oeste 9 Sur 0 -- -- 97
2019-12-06 23:00:00 2.9 6 Sudoeste 15 Sur 0 -- -- 96
2019-12-06 22:00:00 2.9 6 Sudoeste 17 Sur 0 -- -- 96
2019-12-06 21:00:00 2.8 8 Sur 13 Sur 0 -- -- 93
2019-12-06 20:00:00 3.8 8 Sur 13 Sur 0 -- -- 91
2019-12-06 19:00:00 5.5 9 Sudoeste 15 Sur 0 -- -- 85
2019-12-06 18:00:00 7.7 6 Sudoeste 11 Oeste 0 -- -- 78
2019-12-06 17:00:00 9.7 4 Oeste 9 Oeste 0 -- -- 72
2019-12-06 16:00:00 9.6 6 Oeste 12 Oeste 0 -- -- 73
2019-12-06 15:00:00 9.8 6 Oeste 13 Oeste 0 -- -- 72
2019-12-06 14:00:00 8.6 2 Nordeste 5 Nordeste 0 -- -- 79
2019-12-06 13:00:00 7.7 3 Nordeste 14 Nordeste 0 -- -- 87
2019-12-06 12:00:00 6.1 7 Nordeste 12 Nordeste 0 -- -- 93
2019-12-06 11:00:00 5.3 6 Nordeste 12 Nordeste 0 -- -- 99
2019-12-06 10:00:00 3.8 4 Nordeste 10 Nordeste 0 -- -- 100
2019-12-06 09:00:00 3.5 3 Nordeste 9 Nordeste 0 -- -- 100
2019-12-06 08:00:00 3.4 2 Nordeste 15 Este 0 -- -- 99
2019-12-06 07:00:00 3.5 6 Este 14 Este 0 -- -- 100
2019-12-06 06:00:00 3.5 4 Nordeste 11 Nordeste 0 -- -- 100
2019-12-06 05:00:00 3.4 4 Nordeste 10 Este 0 -- -- 99
2019-12-06 04:00:00 3.5 5 Nordeste 14 Este 0 -- -- 99
2019-12-06 03:00:00 3.6 6 Este 19 Este 0 -- -- 98
2019-12-06 02:00:00 3.7 11 Nordeste 20 Este 0 -- -- 99
2019-12-06 01:00:00 3.8 7 Nordeste 21 Este 0 -- -- 98
2019-12-06 00:00:00 4 11 Este 22 Este 0 -- -- 98
2019-12-05 23:00:00 4.2 8 Este 21 Nordeste 0 -- -- 99
2019-12-05 22:00:00 4.3 8 Este 19 Este 0 -- -- 99
2019-12-05 21:00:00 4.2 6 Este 22 Nordeste 0 -- -- 100
2019-12-05 20:00:00 4.2 10 Este 26 Nordeste 0 -- -- 99
2019-12-05 19:00:00 4.2 9 Este 21 Este 0 -- -- 99
2019-12-05 18:00:00 4.1 6 Nordeste 23 Este 0 -- -- 99
2019-12-05 17:00:00 4.2 9 Este 25 Nordeste 0 -- -- 99
2019-12-05 16:00:00 4.2 8 Este 25 Este 0 -- -- 99
2019-12-05 15:00:00 4.1 9 Nordeste 26 Este 0 -- -- 100
2019-12-05 14:00:00 4.1 12 Nordeste 30 Este 0 -- -- 100
2019-12-05 13:00:00 3.9 12 Nordeste 30 Este 0 -- -- 100
2019-12-05 12:00:00 3.9 12 Nordeste 27 Nordeste 0 -- -- 100
2019-12-05 11:00:00 3.4 9 Este 24 Nordeste 0 -- -- 100
2019-12-05 10:00:00 2.8 8 Nordeste 26 Nordeste 0 -- -- 100
2019-12-05 09:00:00 2.8 11 Nordeste 27 Nordeste 0 -- -- 100
2019-12-05 08:00:00 3 10 Nordeste 23 Nordeste 0 -- -- 100
2019-12-05 07:00:00 3.2 11 Nordeste 27 Nordeste 0 -- -- 99
2019-12-05 06:00:00 3.4 9 Nordeste 22 Nordeste 0 -- -- 98
2019-12-05 05:00:00 3.4 9 Nordeste 27 Nordeste 0 -- -- 97
2019-12-05 04:00:00 3.3 7 Nordeste 24 Nordeste 0 -- -- 96
2019-12-05 03:00:00 3.3 12 Nordeste 36 Nordeste 0 -- -- 94
2019-12-05 02:00:00 3.4 12 Nordeste 28 Nordeste 0 -- -- 94
2019-12-05 01:00:00 3.5 9 Nordeste 23 Nordeste 0 -- -- 92
2019-12-05 00:00:00 3.7 5 Nordeste 23 Nordeste 0 -- -- 93
2019-12-04 23:00:00 3.8 7 Nordeste 22 Nordeste 0 -- -- 93
2019-12-04 22:00:00 3.9 6 Nordeste 24 Nordeste 0 -- -- 97
2019-12-04 21:00:00 4 8 Nordeste 25 Nordeste 0 -- -- 99
2019-12-04 20:00:00 4 6 Nordeste 31 Nordeste 0 -- -- 99
2019-12-04 19:00:00 3.9 15 Nordeste 32 Nordeste 0.4 -- -- 98
2019-12-04 18:00:00 3.9 14 Nordeste 31 Nordeste 0 -- -- 98
2019-12-04 17:00:00 3.7 12 Nordeste 38 Norte 0 -- -- 97
2019-12-04 16:00:00 3.6 15 Nordeste 33 Nordeste 0.2 -- -- 98
2019-12-04 15:00:00 3.7 15 Nordeste 39 Nordeste 0 -- -- 99
2019-12-04 14:00:00 3.6 12 Nordeste 35 Nordeste 0 -- -- 100
2019-12-04 13:00:00 3.8 13 Nordeste 34 Nordeste 0 -- -- 100
2019-12-04 12:00:00 3.4 9 Nordeste 29 Nordeste 0 -- -- 100
2019-12-04 11:00:00 3 8 Nordeste 26 Nordeste 0 -- -- 100
2019-12-04 10:00:00 2.7 13 Nordeste 32 Este 0.2 -- -- 100
2019-12-04 09:00:00 2.2 6 Nordeste 20 Este 0 -- -- 100
2019-12-04 08:00:00 1.8 8 Nordeste 18 Nordeste 0 -- -- 100
2019-12-04 07:00:00 1.5 7 Nordeste 19 Nordeste 0 -- -- 100
2019-12-04 06:00:00 1.1 4 Nordeste 13 Nordeste 0.2 -- -- 100
2019-12-04 05:00:00 0.9 4 Nordeste 15 Este 0 -- -- 100
2019-12-04 04:00:00 0.9 4 Nordeste 18 Nordeste 0 -- -- 100
2019-12-04 03:00:00 0.8 5 Nordeste 22 Nordeste 0 -- -- 100
2019-12-04 02:00:00 0.6 6 Nordeste 14 Nordeste 0 -- -- 100
2019-12-04 01:00:00 0.4 8 Este 15 Nordeste 0 -- -- 100
2019-12-04 00:00:00 0.3 5 Nordeste 19 Nordeste 0.2 -- -- 99
2019-12-03 23:00:00 0.4 5 Nordeste 17 Este 0 -- -- 98
2019-12-03 22:00:00 0.5 8 Nordeste 19 Este 0 -- -- 97
2019-12-03 21:00:00 0.7 9 Nordeste 21 Este 0 -- -- 95
2019-12-03 20:00:00 0.8 6 Nordeste 22 Nordeste 0 -- -- 94
2019-12-03 19:00:00 1.2 8 Nordeste 22 Nordeste 0 -- -- 93
2019-12-03 18:00:00 1.7 6 Nordeste 17 Nordeste 0 -- -- 92
2019-12-03 17:00:00 2.2 8 Nordeste 18 Nordeste 0 -- -- 91
2019-12-03 16:00:00 2.5 9 Nordeste 20 Nordeste 0 -- -- 90
2019-12-03 15:00:00 2.9 8 Nordeste 21 Nordeste 7 -- -- 90
2019-12-03 14:00:00 -- -- -- -- -- -- -- -- --
2019-12-03 13:00:00 -- -- -- -- -- -- -- -- --
2019-12-03 12:00:00 1.3 7 Nordeste 22 Nordeste 0 -- -- 94
2019-12-03 11:00:00 0.3 8 Nordeste 20 Este 0 -- -- 97
2019-12-03 10:00:00 -0.6 8 Este 21 Este 0 -- -- 99
2019-12-03 09:00:00 -0.9 5 Nordeste 18 Nordeste 0 -- -- 98
2019-12-03 08:00:00 -0.9 5 Nordeste 19 Nordeste 0 -- -- 99
2019-12-03 07:00:00 -1 5 Nordeste 16 Nordeste 0 -- -- 99
2019-12-03 06:00:00 -0.8 8 Nordeste 23 Este 0 -- -- 98
2019-12-03 05:00:00 -0.5 7 Este 26 Este 0 -- -- 99
2019-12-03 04:00:00 -0.2 8 Nordeste 17 Este 0 -- -- 98
2019-12-03 03:00:00 -0.1 7 Nordeste 21 Este -- -- -- 96
2019-12-03 02:00:00 0.7 10 Nordeste 23 Este 0 -- -- 96
2019-12-03 01:00:00 0.9 9 Nordeste 23 Este 0 -- -- 95
2019-12-03 00:00:00 1.2 10 Este 26 Este 0 -- -- 96
2019-12-02 23:00:00 1 8 Nordeste 18 Este 0 -- -- 96
2019-12-02 22:00:00 1.4 11 Este 20 Nordeste 0 -- -- 94
2019-12-02 21:00:00 1.9 6 Este 19 Nordeste 0 -- -- 95
2019-12-02 20:00:00 2.3 7 Nordeste 25 Nordeste 0 -- -- 94
2019-12-02 19:00:00 2.6 6 Nordeste 20 Nordeste 0 -- -- 90
2019-12-02 18:00:00 3.2 7 Nordeste 24 Nordeste 0 -- -- 88
2019-12-02 17:00:00 4 10 Nordeste 26 Este 0 -- -- 85
2019-12-02 16:00:00 4.4 10 Nordeste 30 Este 0 -- -- 84
2019-12-02 15:00:00 4.6 12 Nordeste 32 Este -- -- -- 83
2019-12-02 14:00:00 4.3 10 Nordeste 32 Nordeste -- -- -- 83
2019-12-02 13:00:00 3.6 13 Nordeste 37 Este -- -- -- 87
2019-12-02 12:00:00 3.5 11 Nordeste 33 Nordeste -- -- -- 91
2019-12-02 11:00:00 2.8 10 Nordeste 30 Este -- -- -- 96
2019-12-02 10:00:00 2.6 12 Nordeste 27 Nordeste -- -- -- 96
2019-12-02 09:00:00 2.3 10 Nordeste 38 Este -- -- -- 95
2019-12-02 08:00:00 2.2 10 Nordeste 25 Nordeste -- -- -- 96
2019-12-02 07:00:00 2.2 8 Nordeste 21 Norte -- -- -- 96
2019-12-02 06:00:00 2.3 9 Nordeste 22 Nordeste -- -- -- 97
2019-12-02 05:00:00 2.4 6 Nordeste 23 Nordeste -- -- -- 97
2019-12-02 04:00:00 2.5 5 Nordeste 26 Este -- -- -- 97
2019-12-02 03:00:00 2.3 5 Nordeste 22 Este -- -- -- 97
2019-12-02 02:00:00 2 7 Nordeste 15 Este -- -- -- 97
2019-12-02 01:00:00 2.3 6 Nordeste 15 Este -- -- -- 97
2019-12-02 00:00:00 2.5 6 Nordeste 15 Este -- -- -- 97
2019-12-01 23:00:00 2.5 7 Este 16 Nordeste -- -- -- 97
2019-12-01 22:00:00 2.9 3 Nordeste 9 Nordeste -- -- -- 98
2019-12-01 21:00:00 3.3 2 Nordeste 10 Nordeste -- -- -- 98
2019-12-01 20:00:00 3.6 2 Nordeste 10 Este -- -- -- 96
2019-12-01 19:00:00 4.4 0 Calma 8 Nordeste -- -- -- 95
2019-12-01 18:00:00 4.8 2 Nordeste 6 Nordeste -- -- -- 93
2019-12-01 17:00:00 5.3 2 Este 12 Sur -- -- -- 90
2019-12-01 16:00:00 5.6 4 Sur 13 Sur -- -- -- 87
2019-12-01 15:00:00 6 6 Sudoeste 15 Oeste -- -- -- 86
2019-12-01 14:00:00 6.4 5 Sudoeste 21 Oeste -- -- -- 82
2019-12-01 13:00:00 5.6 15 Sudoeste 26 Sudoeste -- -- -- 82
2019-12-01 12:00:00 5.6 12 Sudoeste 29 Sudoeste -- -- -- 90
2019-12-01 11:00:00 4.1 8 Sudoeste 25 Sudoeste -- -- -- 94
2019-12-01 10:00:00 3.3 7 Sudoeste 22 Sudoeste -- -- -- 99
2019-12-01 09:00:00 2.6 8 Sudoeste 17 Sur -- -- -- 99
2019-12-01 08:00:00 2.3 4 Sur 10 Sudoeste -- -- -- 99
2019-12-01 07:00:00 2.5 3 Oeste 14 Sur -- -- -- 99
2019-12-01 06:00:00 2.2 9 Sudoeste 15 Sudoeste -- -- -- 100
2019-12-01 05:00:00 1.9 6 Sudoeste 16 Sudoeste -- -- -- 100
2019-12-01 04:00:00 1.9 5 Sudoeste 13 Sudoeste -- -- -- 99
2019-12-01 03:00:00 2 2 Oeste 6 Sur -- -- -- 98
2019-12-01 02:00:00 3 2 Sur 10 Sur -- -- -- 99
2019-12-01 01:00:00 2.4 2 Sur 6 Sudeste -- -- -- 99
2019-12-01 00:00:00 2.2 3 Sudeste 10 Noroeste -- -- -- 98
2019-11-30 23:00:00 2.6 6 Noroeste 28 Oeste -- -- -- 97
2019-11-30 22:00:00 4.8 14 Noroeste 39 Sudoeste -- -- -- 94
2019-11-30 21:00:00 7.8 19 Sudoeste 37 Sudoeste -- -- -- 97
2019-11-30 20:00:00 8.3 23 Sudoeste 41 Sudoeste -- -- -- 96
2019-11-30 19:00:00 8.6 20 Sudoeste 46 Sudoeste -- -- -- 95
2019-11-30 18:00:00 8.8 24 Sudoeste 45 Sudoeste -- -- -- 94
2019-11-30 17:00:00 8.8 15 Sudoeste 36 Sudoeste -- -- -- 94
2019-11-30 16:00:00 8.9 20 Sudoeste 37 Sudoeste -- -- -- 94
2019-11-30 15:00:00 8.6 17 Sudoeste 36 Sudoeste -- -- -- 96
2019-11-30 14:00:00 8.5 16 Sudoeste 33 Sudoeste -- -- -- 96
2019-11-30 13:00:00 8.5 17 Sudoeste 35 Sudoeste -- -- -- 96
2019-11-30 12:00:00 8.9 9 Sudoeste 28 Sudoeste -- -- -- 98
2019-11-30 11:00:00 8.8 14 Sudoeste 36 Sudoeste -- -- -- 97
2019-11-30 10:00:00 8.5 15 Sudoeste 30 Sudoeste -- -- -- 99
2019-11-30 09:00:00 8 13 Sudoeste 31 Sudoeste -- -- -- 98
2019-11-30 08:00:00 8.4 12 Sudoeste 25 Sudoeste -- -- -- 99
2019-11-30 07:00:00 8.5 11 Sudoeste 26 Sudoeste -- -- -- 100
2019-11-30 06:00:00 8.5 9 Sudoeste 26 Sudoeste -- -- -- 100
2019-11-30 05:00:00 8.5 12 Sudoeste 22 Sudoeste -- -- -- 100
2019-11-30 04:00:00 8.6 11 Sudoeste 21 Sudoeste -- -- -- 100
2019-11-30 03:00:00 8.5 11 Sudoeste 21 Sudoeste -- -- -- 99
2019-11-30 02:00:00 8.5 9 Sudoeste 21 Sudoeste -- -- -- 99
2019-11-30 01:00:00 8.4 12 Sudoeste 24 Sudoeste -- -- -- 98
2019-11-30 00:00:00 8.6 11 Sudoeste 20 Sudoeste -- -- -- 99
2019-11-29 23:00:00 8.7 9 Sudoeste 21 Sudoeste -- -- -- 99
2019-11-29 22:00:00 8.9 11 Sudoeste 18 Sudoeste -- -- -- 99
2019-11-29 21:00:00 9.1 12 Sudoeste 26 Sudoeste -- -- -- 99
2019-11-29 20:00:00 9.1 8 Sudoeste 20 Sudoeste -- -- -- 99
2019-11-29 19:00:00 9 5 Sudoeste 21 Sudoeste -- -- -- 99
2019-11-29 18:00:00 9.1 9 Sudoeste 21 Sudoeste -- -- -- 98
2019-11-29 17:00:00 9.4 8 Sudoeste 23 Sudoeste -- -- -- 97
2019-11-29 16:00:00 9.5 12 Sudoeste 22 Sudoeste -- -- -- 97
2019-11-29 15:00:00 9.9 6 Sudoeste 21 Sudoeste -- -- -- 95
2019-11-29 14:00:00 10.2 9 Sudoeste 18 Sudoeste -- -- -- 93
2019-11-29 13:00:00 9.9 12 Sudoeste 23 Sudoeste -- -- -- 97
2019-11-29 12:00:00 9.4 12 Sudoeste 22 Sudoeste -- -- -- 100
2019-11-29 11:00:00 8.4 7 Sudoeste 20 Sudoeste -- -- -- 100
2019-11-29 10:00:00 8.1 9 Sudoeste 24 Sudoeste -- -- -- 100
2019-11-29 09:00:00 7.6 12 Sudoeste 28 Sudoeste -- -- -- 100
2019-11-29 08:00:00 7.5 14 Sudoeste 30 Sudoeste -- -- -- 100
2019-11-29 07:00:00 7.4 18 Sudoeste 31 Sudoeste -- -- -- 100
2019-11-29 06:00:00 7.2 12 Sudoeste 23 Sudoeste -- -- -- 100
2019-11-29 05:00:00 7.2 11 Sudoeste 31 Sudoeste -- -- -- 100
2019-11-29 04:00:00 7.1 12 Sudoeste 26 Sudoeste -- -- -- 100
2019-11-29 03:00:00 7.1 12 Sudoeste 30 Sudoeste -- -- -- 100
2019-11-29 02:00:00 7 16 Sudoeste 33 Sudoeste -- -- -- 100
2019-11-29 01:00:00 6.9 15 Sudoeste 30 Sudoeste -- -- -- 100
2019-11-29 00:00:00 7 18 Sudoeste 32 Sudoeste -- -- -- 99
2019-11-28 23:00:00 6.8 15 Sudoeste 36 Sudoeste -- -- -- 99
2019-11-28 22:00:00 6.9 20 Sudoeste 44 Sudoeste -- -- -- 99
2019-11-28 21:00:00 6.8 19 Sudoeste 40 Sudoeste -- -- -- 99
2019-11-28 20:00:00 6.7 21 Sudoeste 40 Sudoeste -- -- -- 97
2019-11-28 19:00:00 6.5 23 Sudoeste 42 Oeste -- -- -- 97
2019-11-28 18:00:00 6.4 21 Sudoeste 40 Sudoeste -- -- -- 96
2019-11-28 17:00:00 6.5 17 Sudoeste 39 Sudoeste -- -- -- 97
2019-11-28 16:00:00 6.5 16 Sudoeste 35 Sudoeste -- -- -- 98
2019-11-28 15:00:00 6.4 13 Sudoeste 34 Sudoeste -- -- -- 98
2019-11-28 14:00:00 6.2 17 Sudoeste 36 Sudoeste -- -- -- 98
2019-11-28 13:00:00 6.3 14 Sudoeste 29 Sudoeste -- -- -- 98
2019-11-28 12:00:00 6.3 16 Sudoeste 32 Sudoeste -- -- -- 97
2019-11-28 11:00:00 6.4 10 Sudoeste 30 Sudoeste -- -- -- 96
2019-11-28 10:00:00 5.6 12 Sudoeste 31 Sudoeste -- -- -- 99
2019-11-28 09:00:00 5 14 Oeste 37 Sudoeste -- -- -- 98
2019-11-28 08:00:00 4.9 9 Sudoeste 30 Sudoeste -- -- -- 97
2019-11-28 07:00:00 5 13 Oeste 36 Sudoeste -- -- -- 96
2019-11-28 06:00:00 5.2 18 Sudoeste 34 Sudoeste -- -- -- 96
2019-11-28 05:00:00 5.2 17 Sudoeste 33 Sudoeste -- -- -- 95
2019-11-28 04:00:00 5.3 14 Oeste 37 Oeste -- -- -- 95
2019-11-28 03:00:00 5.4 15 Sudoeste 32 Sudoeste -- -- -- 94
2019-11-28 02:00:00 5.7 13 Sudoeste 36 Oeste -- -- -- 94
2019-11-28 01:00:00 6 21 Sudoeste 38 Oeste -- -- -- 93
2019-11-28 00:00:00 6 16 Sudoeste 45 Sudoeste -- -- -- 94
2019-11-27 23:00:00 6 20 Sudoeste 37 Sudoeste -- -- -- 92
2019-11-27 22:00:00 6 13 Sudoeste 37 Oeste -- -- -- 92
2019-11-27 21:00:00 6.2 20 Sudoeste 39 Oeste -- -- -- 93
2019-11-27 20:00:00 6 15 Sudoeste 37 Oeste -- -- -- 92
2019-11-27 19:00:00 6.1 18 Sudoeste 33 Sudoeste -- -- -- 90
2019-11-27 18:00:00 6.4 19 Sudoeste 39 Sudoeste -- -- -- 87
2019-11-27 17:00:00 7.1 18 Sudoeste 36 Sudoeste -- -- -- 84
2019-11-27 16:00:00 7.6 19 Sudoeste 45 Sudoeste -- -- -- 79
2019-11-27 15:00:00 7.8 19 Sudoeste 41 Sudoeste -- -- -- 80
2019-11-27 14:00:00 7.9 21 Sudoeste 36 Sur -- -- -- 79
2019-11-27 06:00:00 -- -- -- -- -- -- -- -- --
2019-11-27 05:00:00 -- -- -- -- -- -- -- -- --
2019-11-27 04:00:00 -- -- -- -- -- -- -- -- --
2019-11-27 03:00:00 -- -- -- -- -- -- -- -- --
2019-11-27 02:00:00 7.8 25 Sudoeste 55 Sudoeste -- -- -- 97
2019-11-27 01:00:00 8.2 31 Sudoeste 59 Sudoeste -- -- -- 93
2019-11-27 00:00:00 8.8 35 Sudoeste 67 Sudoeste -- -- -- 93
2019-11-26 23:00:00 9.3 26 Sudoeste 65 Sudoeste -- -- -- 97
2019-11-26 22:00:00 9.3 29 Sudoeste 55 Sur -- -- -- 97
2019-11-26 21:00:00 9.2 30 Sudoeste 58 Sudoeste -- -- -- 99
2019-11-26 20:00:00 9.2 31 Sudoeste 56 Sudoeste -- -- -- 98
2019-11-26 19:00:00 9.2 26 Sudoeste 45 Sudoeste -- -- -- 97
2019-11-26 18:00:00 9.3 20 Sudoeste 39 Sudoeste -- -- -- 97
2019-11-26 17:00:00 9.2 18 Sudoeste 39 Sudoeste -- -- -- 93
2019-11-26 16:00:00 9.2 18 Sudoeste 40 Sudoeste -- -- -- 94
2019-11-26 15:00:00 9.6 18 Sudoeste 39 Sudoeste -- -- -- 94
2019-11-26 14:00:00 9.3 21 Sudoeste 39 Sudoeste -- -- -- 93
2019-11-26 13:00:00 9.3 20 Sudoeste 37 Sudoeste -- -- -- 93
2019-11-26 12:00:00 8 12 Sudoeste 40 Sudoeste -- -- -- 98
2019-11-26 11:00:00 7.6 19 Sudoeste 38 Sudoeste -- -- -- 97
2019-11-26 10:00:00 7.2 17 Sudoeste 35 Sudoeste -- -- -- 94
2019-11-26 09:00:00 6.7 14 Sudoeste 30 Oeste -- -- -- 95
2019-11-26 08:00:00 6.8 15 Sudoeste 26 Sudoeste -- -- -- 96
2019-11-26 07:00:00 6.9 11 Sudoeste 24 Sudoeste -- -- -- 96
2019-11-26 06:00:00 6.9 14 Sudoeste 33 Sudoeste -- -- -- 98
2019-11-26 05:00:00 6.8 18 Sudoeste 35 Sudoeste -- -- -- 98
2019-11-26 04:00:00 6.7 13 Sudoeste 31 Sudoeste -- -- -- 96
2019-11-26 03:00:00 6.9 16 Sudoeste 28 Sudoeste -- -- -- 96
2019-11-26 02:00:00 7 11 Sudoeste 23 Sudoeste -- -- -- 98
2019-11-26 01:00:00 6.9 12 Sudoeste 31 Sudoeste -- -- -- 97
2019-11-26 00:00:00 6.9 14 Sudoeste 27 Sudoeste -- -- -- 98
2019-11-25 23:00:00 7.3 9 Sudoeste 21 Sudoeste -- -- -- 96
2019-11-25 22:00:00 7.9 14 Sudoeste 26 Sudoeste -- -- -- 95
2019-11-25 21:00:00 8.2 11 Sudoeste 22 Sudoeste -- -- -- 95
2019-11-25 20:00:00 8.3 10 Sudoeste 25 Sudoeste -- -- -- 95
2019-11-25 19:00:00 8.3 13 Sudoeste 24 Sudoeste -- -- -- 94
2019-11-25 18:00:00 8.8 10 Sudoeste 18 Sudoeste -- -- -- 91
2019-11-25 17:00:00 9.6 8 Sudoeste 26 Oeste -- -- -- 87
2019-11-25 16:00:00 9.7 10 Sudoeste 27 Sudoeste -- -- -- 85
2019-11-25 15:00:00 9.9 12 Sudoeste 27 Sudoeste -- -- -- 82
2019-11-25 14:00:00 9.1 10 Oeste 30 Oeste -- -- -- 90
2019-11-25 13:00:00 8.7 10 Sudoeste 25 Sudoeste -- -- -- 94
2019-11-25 12:00:00 8.3 13 Sudoeste 26 Sudoeste -- -- -- 96
2019-11-25 11:00:00 7 13 Sudoeste 26 Sudoeste -- -- -- 100
2019-11-25 10:00:00 6.1 14 Sudoeste 30 Sudoeste -- -- -- 100
2019-11-25 09:00:00 5.5 14 Sudoeste 23 Sudoeste -- -- -- 100
2019-11-25 08:00:00 5.4 10 Sudoeste 29 Sudoeste -- -- -- 100
2019-11-25 07:00:00 5.3 8 Sudoeste 30 Sudoeste -- -- -- 100
2019-11-25 06:00:00 5.2 17 Sudoeste 46 Sudoeste -- -- -- 99
2019-11-25 05:00:00 5.1 19 Sudoeste 41 Sudoeste -- -- -- 99
2019-11-25 04:00:00 4.9 15 Sudoeste 32 Sudoeste -- -- -- 99
2019-11-25 03:00:00 4.4 12 Sudoeste 30 Sudoeste -- -- -- 99
2019-11-25 02:00:00 3.9 12 Sudoeste 35 Sudoeste -- -- -- 99
2019-11-25 01:00:00 3.5 14 Sudoeste 32 Sudoeste -- -- -- 97
2019-11-25 00:00:00 3.2 16 Sudoeste 31 Sudoeste -- -- -- 94
2019-11-24 23:00:00 3 17 Sudoeste 33 Sudoeste -- -- -- 89
2019-11-24 22:00:00 2.9 15 Sudoeste 31 Sudoeste -- -- -- 88
2019-11-24 21:00:00 2.9 17 Sudoeste 33 Sudoeste -- -- -- 90
2019-11-24 20:00:00 3.1 17 Sudoeste 33 Sudoeste -- -- -- 88
2019-11-24 19:00:00 3.6 14 Sudoeste 29 Sudoeste -- -- -- 80
2019-11-24 18:00:00 4.4 15 Sudoeste 30 Sudoeste -- -- -- 77
2019-11-24 17:00:00 6.3 15 Oeste 32 Oeste -- -- -- 69
2019-11-24 16:00:00 6.4 12 Oeste 27 Oeste -- -- -- 72
2019-11-24 15:00:00 6.3 17 Oeste 28 Sudoeste -- -- -- 72
2019-11-24 14:00:00 5.4 12 Oeste 24 Sudoeste -- -- -- 76
2019-11-24 13:00:00 5.5 9 Oeste 24 Oeste -- -- -- 77
2019-11-24 12:00:00 4.2 9 Oeste 25 Oeste -- -- -- 81
2019-11-24 11:00:00 3.1 8 Noroeste 27 Noroeste -- -- -- 84
2019-11-24 10:00:00 2.5 13 Noroeste 29 Oeste -- -- -- 85
2019-11-24 09:00:00 2.1 14 Oeste 31 Oeste -- -- -- 87
2019-11-24 08:00:00 1.9 11 Oeste 28 Noroeste -- -- -- 87
2019-11-24 07:00:00 1.6 9 Oeste 26 Noroeste -- -- -- 90
2019-11-24 06:00:00 1.6 3 Sudoeste 16 Noroeste -- -- -- 91
2019-11-24 05:00:00 1.7 6 Oeste 14 Oeste -- -- -- 91
2019-11-24 04:00:00 1.9 6 Oeste 16 Oeste -- -- -- 89
2019-11-24 03:00:00 2.4 5 Oeste 16 Oeste -- -- -- 87
2019-11-24 02:00:00 2.5 6 Oeste 21 Oeste -- -- -- 87
2019-11-24 01:00:00 2.4 10 Sudoeste 21 Sudoeste -- -- -- 87
2019-11-24 00:00:00 2.8 12 Sudoeste 26 Oeste -- -- -- 86
2019-11-23 23:00:00 2.6 14 Oeste 31 Sudoeste -- -- -- 86
2019-11-23 22:00:00 2.5 7 Sudoeste 16 Oeste -- -- -- 82
2019-11-23 21:00:00 2.4 7 Oeste 20 Oeste -- -- -- 82
2019-11-23 20:00:00 2.8 9 Sudoeste 18 Sudoeste -- -- -- 81
2019-11-23 19:00:00 3.2 6 Oeste 22 Sudoeste -- -- -- 78
2019-11-23 18:00:00 4.4 8 Oeste 36 Oeste -- -- -- 71
2019-11-23 17:00:00 5.3 17 Oeste 37 Sudoeste -- -- -- 67
2019-11-23 16:00:00 5.3 12 Noroeste 39 Oeste -- -- -- 68
2019-11-23 15:00:00 5.3 11 Oeste 28 Oeste -- -- -- 74
2019-11-23 14:00:00 5.4 16 Oeste 42 Oeste -- -- -- 75
2019-11-23 13:00:00 4.5 19 Oeste 44 Oeste -- -- -- 76
2019-11-23 12:00:00 3.7 20 Oeste 40 Oeste -- -- -- 84
2019-11-23 11:00:00 3 17 Oeste 37 Oeste -- -- -- 92
2019-11-23 10:00:00 2.6 17 Sudoeste 35 Oeste -- -- -- 96
2019-11-23 09:00:00 2.2 13 Oeste 31 Sudoeste -- -- -- 98
2019-11-23 08:00:00 2 17 Oeste 46 Oeste -- -- -- 99
2019-11-23 07:00:00 1.6 16 Sudoeste 32 Sudoeste -- -- -- 97
2019-11-23 06:00:00 2.5 20 Sudoeste 45 Oeste -- -- -- 96
2019-11-23 05:00:00 3.4 24 Sudoeste 57 Sudoeste -- -- -- 95
2019-11-23 04:00:00 3.7 19 Oeste 44 Sudoeste -- -- -- 96
2019-11-23 03:00:00 3.9 13 Sudoeste 53 Sudoeste -- -- -- 97
2019-11-23 02:00:00 4.6 29 Sudoeste 54 Sudoeste -- -- -- 96
2019-11-23 01:00:00 5 20 Sudoeste 48 Oeste -- -- -- 95
2019-11-23 00:00:00 5.4 24 Sudoeste 54 Sudoeste -- -- -- 95
2019-11-22 23:00:00 6.2 25 Sudoeste 54 Sudoeste -- -- -- 94
2019-11-22 22:00:00 6.7 31 Sudoeste 59 Sudoeste -- -- -- 93
2019-11-22 21:00:00 6.9 27 Sudoeste 57 Sudoeste -- -- -- 95
2019-11-22 20:00:00 7.8 25 Sudoeste 58 Sudoeste -- -- -- 96
2019-11-22 19:00:00 8.3 29 Sudoeste 64 Sudoeste -- -- -- 97
2019-11-22 18:00:00 8.2 28 Sudoeste 52 Sur -- -- -- 98
2019-11-22 17:00:00 7.8 26 Sudoeste 52 Sudoeste -- -- -- 97
2019-11-22 16:00:00 7.7 26 Sudoeste 55 Sudoeste -- -- -- 97
2019-11-22 15:00:00 7.1 26 Sudoeste 54 Sur -- -- -- 97
2019-11-22 14:00:00 6.9 25 Sudoeste 50 Sudoeste -- -- -- 97
2019-11-22 13:00:00 6.5 24 Sudoeste 46 Sur -- -- -- 97
2019-11-22 12:00:00 6 25 Sudoeste 51 Sudoeste -- -- -- 97
2019-11-22 11:00:00 5.8 22 Sudoeste 41 Sudoeste -- -- -- 97
2019-11-22 10:00:00 5.4 20 Sudoeste 43 Sudoeste -- -- -- 98
2019-11-22 09:00:00 5 23 Sudoeste 41 Sudoeste -- -- -- 99
2019-11-22 08:00:00 4.6 19 Sudoeste 33 Sudoeste -- -- -- 99
2019-11-22 07:00:00 4.1 17 Sudoeste 32 Sudoeste -- -- -- 99
2019-11-22 06:00:00 3.9 14 Sudoeste 31 Sur -- -- -- 99
2019-11-22 05:00:00 3.7 17 Sur 31 Sur -- -- -- 99
2019-11-22 04:00:00 3.8 12 Sudoeste 23 Sudoeste -- -- -- 97
2019-11-22 03:00:00 3.6 7 Sudoeste 17 Sudoeste -- -- -- 96
2019-11-22 02:00:00 3.5 7 Sudoeste 21 Sudoeste -- -- -- 96
2019-11-22 01:00:00 3.7 12 Sudoeste 26 Sudoeste -- -- -- 97
2019-11-22 00:00:00 3.7 12 Sudoeste 25 Sudoeste -- -- -- 97
2019-11-21 23:00:00 3.9 8 Sudoeste 16 Sudoeste -- -- -- 97
2019-11-21 22:00:00 3.8 8 Sudoeste 19 Sudoeste -- -- -- 97
2019-11-21 21:00:00 4 9 Sudoeste 18 Sudoeste -- -- -- 97
2019-11-21 20:00:00 4.1 7 Sur 18 Sudoeste -- -- -- 96
2019-11-21 19:00:00 4.3 7 Sudoeste 20 Sudoeste -- -- -- 95
2019-11-21 18:00:00 4.4 6 Sudoeste 22 Sudoeste -- -- -- 95
2019-11-21 17:00:00 4.7 12 Sudoeste 26 Sudoeste -- -- -- 92
2019-11-21 16:00:00 4.9 13 Sudoeste 33 Sudoeste -- -- -- 94
2019-11-21 15:00:00 5.2 14 Sudoeste 31 Sudoeste -- -- -- 92
2019-11-21 14:00:00 4.6 14 Sudoeste 33 Sudoeste -- -- -- 94
2019-11-21 13:00:00 4.7 15 Sudoeste 34 Sudoeste -- -- -- 92
2019-11-21 12:00:00 4.8 18 Sudoeste 35 Sudoeste -- -- -- 94
2019-11-21 11:00:00 4.2 14 Sudoeste 31 Sudoeste -- -- -- 98
2019-11-21 10:00:00 3.3 12 Sudoeste 25 Sudoeste -- -- -- 98
2019-11-21 09:00:00 2.8 10 Sudoeste 21 Sudoeste -- -- -- 98
2019-11-21 08:00:00 -- -- -- -- -- -- -- -- --
2019-11-21 07:00:00 -- -- -- -- -- -- -- -- --
2019-11-21 06:00:00 -- -- -- -- -- -- -- -- --
2019-11-21 05:00:00 -- -- -- -- -- -- -- -- --
2019-11-21 04:00:00 -- -- -- -- -- -- -- -- --
2019-11-21 03:00:00 -- -- -- -- -- -- -- -- --
2019-11-21 02:00:00 -- -- -- -- -- -- -- -- --
2019-11-21 01:00:00 -- -- -- -- -- -- -- -- --
2019-11-21 00:00:00 -- -- -- -- -- -- -- -- --
2019-11-20 23:00:00 -- -- -- -- -- -- -- -- --
2019-11-20 22:00:00 1.5 10 Sudoeste 22 Sudoeste -- -- -- 96
2019-11-20 21:00:00 1.8 13 Sudoeste 30 Sudoeste -- -- -- 95
2019-11-20 20:00:00 2.1 11 Sudoeste 23 Sudoeste -- -- -- 94
2019-11-20 19:00:00 2.8 12 Sudoeste 23 Sudoeste -- -- -- 92
2019-11-20 18:00:00 3 8 Sudoeste 28 Sudoeste -- -- -- 90
2019-11-20 17:00:00 4.1 15 Sudoeste 30 Sudoeste -- -- -- 84
2019-11-20 16:00:00 5.6 16 Sudoeste 29 Sudoeste -- -- -- 69
2019-11-20 15:00:00 5.6 16 Sudoeste 28 Sudoeste -- -- -- 67
2019-11-20 14:00:00 5.5 13 Sudoeste 28 Oeste -- -- -- 69
2019-11-20 13:00:00 6.1 17 Sudoeste 27 Oeste -- -- -- 63
2019-11-20 12:00:00 3.8 12 Sudoeste 29 Sudoeste -- -- -- 83
2019-11-20 11:00:00 3.5 15 Sudoeste 30 Sudoeste -- -- -- 84
2019-11-20 10:00:00 1.6 10 Sudoeste 24 Sudoeste -- -- -- 89
2019-11-20 09:00:00 -0.3 10 Sudoeste 22 Sudoeste -- -- -- 93
2019-11-20 08:00:00 0.2 13 Sudoeste 23 Sudoeste -- -- -- 90
2019-11-20 07:00:00 0.3 11 Sudoeste 20 Sudoeste -- -- -- 90
2019-11-20 06:00:00 0.8 9 Sudoeste 19 Sudoeste -- -- -- 90
2019-11-20 05:00:00 0.4 12 Sudoeste 23 Sur -- -- -- 91
2019-11-20 04:00:00 -0.5 11 Sur 22 Sur -- -- -- 93
2019-11-20 03:00:00 -0.7 11 Sur 18 Sur -- -- -- 93
2019-11-20 02:00:00 -0.4 12 Sur 18 Sur -- -- -- 93
2019-11-20 01:00:00 -0.4 11 Sur 17 Sur -- -- -- 92
2019-11-20 00:00:00 0.1 10 Sur 16 Sur -- -- -- 91
2019-11-19 23:00:00 0.7 9 Sur 17 Sudoeste -- -- -- 89
2019-11-19 22:00:00 0.8 9 Sudoeste 17 Sur -- -- -- 90
2019-11-19 21:00:00 1.6 7 Sudoeste 15 Oeste -- -- -- 86
2019-11-19 20:00:00 1.6 7 Sudoeste 22 Sur -- -- -- 84
2019-11-19 19:00:00 2.3 12 Sudoeste 20 Sudoeste -- -- -- 82
2019-11-19 18:00:00 3.8 5 Sudoeste 17 Sudoeste -- -- -- 71
2019-11-19 17:00:00 5.6 6 Sudoeste 13 Oeste -- -- -- 64
2019-11-19 16:00:00 6.6 5 Oeste 15 Oeste -- -- -- 59
2019-11-19 15:00:00 5.9 7 Oeste 21 Oeste -- -- -- 63
2019-11-19 14:00:00 5.5 10 Oeste 23 Oeste -- -- -- 67
2019-11-19 13:00:00 4.2 10 Oeste 22 Oeste -- -- -- 72
2019-11-19 12:00:00 3.6 6 Oeste 16 Oeste -- -- -- 79
2019-11-19 11:00:00 2 6 Oeste 17 Oeste -- -- -- 85
2019-11-19 10:00:00 -0.9 5 Sudoeste 10 Sudoeste -- -- -- 95
2019-11-19 09:00:00 -3 4 Sudoeste 9 Sudoeste -- -- -- 96
2019-11-19 08:00:00 -3.9 3 Sur 6 Sudoeste -- -- -- 93
2019-11-19 07:00:00 -3.5 2 Sudoeste 4 Sur -- -- -- 92
2019-11-19 06:00:00 -2.7 4 Sudoeste 8 Sudoeste -- -- -- 94
2019-11-19 05:00:00 -2.8 3 Sudoeste 6 Sudoeste -- -- -- 94
2019-11-19 04:00:00 -2.9 2 Este 6 Este -- -- -- 93
2019-11-19 03:00:00 -2.3 2 Sur 3 Sur -- -- -- 91
2019-11-19 02:00:00 -1.7 0 Calma 5 Oeste -- -- -- 90
2019-11-19 01:00:00 -1 5 Oeste 10 Oeste -- -- -- 91
2019-11-19 00:00:00 -0.7 3 Oeste 5 Sudoeste -- -- -- 88
2019-11-18 23:00:00 0 0 Calma 8 Norte -- -- -- 86
2019-11-18 22:00:00 0.5 4 Norte 16 Norte -- -- -- 84
2019-11-18 21:00:00 1.2 9 Norte 22 Norte -- -- -- 82
2019-11-18 20:00:00 2.1 10 Norte 21 Norte -- -- -- 82
2019-11-18 19:00:00 2.5 6 Norte 15 Norte -- -- -- 79
2019-11-18 18:00:00 3.2 3 Norte 16 Noroeste -- -- -- 78
2019-11-18 17:00:00 3.8 9 Norte 27 Noroeste -- -- -- 72
2019-11-18 16:00:00 4.3 13 Norte 35 Noroeste -- -- -- 68
2019-11-18 15:00:00 3.6 13 Norte 33 Noroeste -- -- -- 79
2019-11-18 14:00:00 4.1 15 Norte 31 Norte -- -- -- 74
2019-11-18 13:00:00 3.6 14 Norte 29 Noroeste -- -- -- 75
2019-11-18 12:00:00 2.6 15 Norte 35 Norte -- -- -- 80
2019-11-18 11:00:00 1.7 9 Norte 23 Noroeste -- -- -- 90
2019-11-18 10:00:00 0.3 10 Noroeste 25 Norte -- -- -- 96
2019-11-18 09:00:00 -0.2 0 Calma 15 Norte -- -- -- 97
2019-11-18 08:00:00 -0.1 0 Calma 15 Norte -- -- -- 96
2019-11-18 07:00:00 0.2 0 Calma 21 Noroeste -- -- -- 97
2019-11-18 06:00:00 0.3 8 Noroeste 16 Norte -- -- -- 97
2019-11-18 05:00:00 0.3 8 Noroeste 17 Noroeste -- -- -- 96
2019-11-18 04:00:00 0.4 12 Noroeste 22 Noroeste -- -- -- 95
2019-11-18 03:00:00 0.6 6 Oeste 19 Noroeste -- -- -- 95
2019-11-18 02:00:00 1 7 Oeste 15 Oeste -- -- -- 94
2019-11-18 01:00:00 1.5 5 Oeste 18 Noroeste -- -- -- 96
2019-11-18 00:00:00 1.5 4 Oeste 14 Noroeste -- -- -- 96
2019-11-17 23:00:00 1.5 5 Oeste 22 Noroeste -- -- -- 99
2019-11-17 22:00:00 3.1 5 Oeste 26 Sudoeste -- -- -- 100
2019-11-17 21:00:00 2.9 13 Sudoeste 27 Sudoeste -- -- -- 100
2019-11-17 20:00:00 2.6 14 Sudoeste 36 Sudoeste -- -- -- 99
2019-11-17 19:00:00 2.5 19 Sudoeste 39 Sudoeste -- -- -- 98
2019-11-17 18:00:00 2 17 Sudoeste 34 Sudoeste -- -- -- 98
2019-11-17 17:00:00 2 18 Sudoeste 37 Sudoeste -- -- -- 97
2019-11-17 16:00:00 1.8 17 Sudoeste 36 Sudoeste -- -- -- 96
2019-11-17 15:00:00 1.9 14 Sudoeste 32 Sudoeste -- -- -- 93
2019-11-17 14:00:00 2.6 15 Sudoeste 40 Sudoeste -- -- -- 85
2019-11-17 13:00:00 3.5 19 Sudoeste 37 Sudoeste -- -- -- 74
2019-11-17 12:00:00 2.3 15 Sudoeste 39 Sudoeste -- -- -- 81
2019-11-17 11:00:00 1.6 15 Sudoeste 36 Sudoeste -- -- -- 85
2019-11-17 10:00:00 0 13 Sudoeste 26 Sudoeste -- -- -- 89
2019-11-17 09:00:00 -1.3 14 Sudoeste 30 Sur -- -- -- 91
2019-11-17 08:00:00 -1.8 14 Sudoeste 25 Sudoeste -- -- -- 90
2019-11-17 07:00:00 -1.3 10 Sudoeste 22 Sudoeste -- -- -- 86
2019-11-17 06:00:00 -1.5 7 Sudoeste 22 Sudoeste -- -- -- 86
2019-11-17 05:00:00 -1.3 9 Sudoeste 19 Oeste -- -- -- 86
2019-11-17 04:00:00 -1.1 8 Sudoeste 16 Sudoeste -- -- -- 84
2019-11-17 03:00:00 -1.1 6 Sudoeste 15 Sudoeste -- -- -- 84
2019-11-17 02:00:00 -0.9 6 Sudoeste 13 Oeste -- -- -- 84
2019-11-17 01:00:00 -0.4 5 Sudoeste 14 Sudoeste -- -- -- 83
2019-11-17 00:00:00 -0.4 5 Oeste 10 Oeste -- -- -- 82
2019-11-16 23:00:00 0.4 4 Oeste 12 Sudoeste -- -- -- 79
2019-11-16 22:00:00 0 3 Oeste 12 Sudoeste -- -- -- 79
2019-11-16 21:00:00 0.5 4 Oeste 17 Sudoeste -- -- -- 77
2019-11-16 20:00:00 0.8 5 Oeste 12 Oeste -- -- -- 76
2019-11-16 19:00:00 2 4 Oeste 18 Noroeste -- -- -- 71
2019-11-16 18:00:00 3.2 7 Noroeste 21 Noroeste -- -- -- 69
2019-11-16 17:00:00 4.1 9 Oeste 25 Oeste -- -- -- 64
2019-11-16 16:00:00 5.2 10 Oeste 27 Oeste -- -- -- 63
2019-11-16 15:00:00 4.8 7 Oeste 23 Noroeste -- -- -- 66
2019-11-16 14:00:00 4.1 6 Noroeste 17 Norte -- -- -- 72
2019-11-16 13:00:00 2.9 6 Noroeste 18 Noroeste -- -- -- 76
2019-11-16 12:00:00 1.6 3 Oeste 19 Noroeste -- -- -- 84
2019-11-16 11:00:00 0.3 4 Oeste 19 Oeste -- -- -- 88
2019-11-16 10:00:00 -1.3 0 Calma 13 Norte -- -- -- 92
2019-11-16 09:00:00 -1.9 5 Noroeste 12 Norte -- -- -- 94
2019-11-16 08:00:00 -1.9 2 Noroeste 14 Noroeste -- -- -- 91
2019-11-16 07:00:00 -0.9 5 Norte 15 Norte -- -- -- 91
2019-11-16 06:00:00 -0.6 8 Noroeste 20 Noroeste -- -- -- 93
2019-11-16 05:00:00 -0.5 9 Noroeste 24 Noroeste -- -- -- 93
2019-11-16 04:00:00 -0.4 10 Noroeste 21 Norte -- -- -- 93
2019-11-16 03:00:00 -0.2 6 Noroeste 24 Noroeste -- -- -- 93
2019-11-16 02:00:00 -0.2 7 Oeste 15 Oeste -- -- -- 95
2019-11-16 01:00:00 0.2 4 Oeste 11 Oeste -- -- -- 94
2019-11-16 00:00:00 0.5 0 Calma 14 Norte -- -- -- 93